sensor_id;sensor_type;location;lat;lon;timestamp;pressure;altitude;pressure_sealevel;temperature;humidity
56374;BME280;58212;47.034;7.376;2024-03-02T00:01:14;94314.75;;;3.16;86.26
56374;BME280;58212;47.034;7.376;2024-03-02T00:03:42;94308.25;;;3.25;85.57
56374;BME280;58212;47.034;7.376;2024-03-02T00:06:10;94302.44;;;3.23;85.51
56374;BME280;58212;47.034;7.376;2024-03-02T00:08:38;94311.13;;;3.17;85.12
56374;BME280;58212;47.034;7.376;2024-03-02T00:11:04;94318.44;;;3.08;85.91
56374;BME280;58212;47.034;7.376;2024-03-02T00:13:31;94313.63;;;3.05;86.24
56374;BME280;58212;47.034;7.376;2024-03-02T00:15:59;94313.66;;;2.99;85.96
56374;BME280;58212;47.034;7.376;2024-03-02T00:18:29;94315.31;;;2.93;85.94
56374;BME280;58212;47.034;7.376;2024-03-02T00:20:57;94324.78;;;2.87;86.04
56374;BME280;58212;47.034;7.376;2024-03-02T00:23:27;94322.56;;;2.91;86.10
56374;BME280;58212;47.034;7.376;2024-03-02T00:25:56;94322.41;;;2.86;86.17
56374;BME280;58212;47.034;7.376;2024-03-02T00:28:24;94317.94;;;2.93;85.86
56374;BME280;58212;47.034;7.376;2024-03-02T00:30:56;94325.50;;;3.01;86.31
56374;BME280;58212;47.034;7.376;2024-03-02T00:33:26;94319.78;;;2.86;86.36
56374;BME280;58212;47.034;7.376;2024-03-02T00:35:54;94329.78;;;2.95;86.31
56374;BME280;58212;47.034;7.376;2024-03-02T00:38:20;94325.53;;;2.94;86.63
56374;BME280;58212;47.034;7.376;2024-03-02T00:40:49;94333.13;;;3.03;85.74
56374;BME280;58212;47.034;7.376;2024-03-02T00:43:44;94324.78;;;2.87;86.06
56374;BME280;58212;47.034;7.376;2024-03-02T00:46:13;94335.88;;;2.83;86.11
56374;BME280;58212;47.034;7.376;2024-03-02T00:48:48;94327.59;;;2.92;86.27
56374;BME280;58212;47.034;7.376;2024-03-02T00:51:17;94329.59;;;2.90;86.21
56374;BME280;58212;47.034;7.376;2024-03-02T00:53:44;94327.66;;;2.79;86.02
56374;BME280;58212;47.034;7.376;2024-03-02T00:56:12;94325.47;;;2.76;86.11
56374;BME280;58212;47.034;7.376;2024-03-02T00:58:39;94325.88;;;2.73;86.32
56374;BME280;58212;47.034;7.376;2024-03-02T01:01:06;94326.03;;;2.85;86.12
56374;BME280;58212;47.034;7.376;2024-03-02T01:03:33;94326.16;;;2.90;86.46
56374;BME280;58212;47.034;7.376;2024-03-02T01:06:00;94320.50;;;3.00;85.82
56374;BME280;58212;47.034;7.376;2024-03-02T01:08:27;94320.03;;;3.09;85.74
56374;BME280;58212;47.034;7.376;2024-03-02T01:10:54;94325.09;;;3.04;85.68
56374;BME280;58212;47.034;7.376;2024-03-02T01:13:23;94321.06;;;3.02;85.24
56374;BME280;58212;47.034;7.376;2024-03-02T01:15:50;94320.88;;;3.03;85.70
56374;BME280;58212;47.034;7.376;2024-03-02T01:18:17;94319.31;;;2.95;85.69
56374;BME280;58212;47.034;7.376;2024-03-02T01:20:44;94320.78;;;2.85;86.18
56374;BME280;58212;47.034;7.376;2024-03-02T01:23:11;94326.81;;;2.85;85.98
56374;BME280;58212;47.034;7.376;2024-03-02T01:25:37;94317.56;;;2.89;86.29
56374;BME280;58212;47.034;7.376;2024-03-02T01:28:05;94316.75;;;2.89;86.01
56374;BME280;58212;47.034;7.376;2024-03-02T01:30:33;94324.63;;;2.82;86.33
56374;BME280;58212;47.034;7.376;2024-03-02T01:33:00;94319.63;;;2.81;86.22
56374;BME280;58212;47.034;7.376;2024-03-02T01:35:27;94316.75;;;2.89;86.06
56374;BME280;58212;47.034;7.376;2024-03-02T01:37:54;94321.56;;;2.92;86.41
56374;BME280;58212;47.034;7.376;2024-03-02T01:40:21;94323.34;;;2.91;85.75
56374;BME280;58212;47.034;7.376;2024-03-02T01:42:52;94313.16;;;2.83;85.69
56374;BME280;58212;47.034;7.376;2024-03-02T01:45:18;94321.81;;;2.84;86.07
56374;BME280;58212;47.034;7.376;2024-03-02T01:47:47;94316.66;;;2.71;86.52
56374;BME280;58212;47.034;7.376;2024-03-02T01:50:14;94319.06;;;2.72;86.72
56374;BME280;58212;47.034;7.376;2024-03-02T01:52:41;94313.38;;;2.82;86.67
56374;BME280;58212;47.034;7.376;2024-03-02T01:55:08;94310.16;;;2.80;86.02
56374;BME280;58212;47.034;7.376;2024-03-02T01:57:37;94313.22;;;2.77;86.11
56374;BME280;58212;47.034;7.376;2024-03-02T02:00:05;94310.25;;;2.67;86.36
56374;BME280;58212;47.034;7.376;2024-03-02T02:02:38;94312.25;;;2.65;86.97
56374;BME280;58212;47.034;7.376;2024-03-02T02:05:07;94310.69;;;2.64;86.91
56374;BME280;58212;47.034;7.376;2024-03-02T02:07:35;94305.91;;;2.54;86.73
56374;BME280;58212;47.034;7.376;2024-03-02T02:10:01;94300.84;;;2.59;86.36
56374;BME280;58212;47.034;7.376;2024-03-02T02:12:28;94296.59;;;2.65;86.24
56374;BME280;58212;47.034;7.376;2024-03-02T02:14:55;94303.47;;;2.59;85.88
56374;BME280;58212;47.034;7.376;2024-03-02T02:17:22;94291.47;;;2.52;86.71
56374;BME280;58212;47.034;7.376;2024-03-02T02:19:49;94297.81;;;2.62;86.10
56374;BME280;58212;47.034;7.376;2024-03-02T02:22:17;94297.88;;;2.56;86.11
56374;BME280;58212;47.034;7.376;2024-03-02T02:24:44;94300.69;;;2.54;85.58
56374;BME280;58212;47.034;7.376;2024-03-02T02:27:11;94298.34;;;2.39;85.89
56374;BME280;58212;47.034;7.376;2024-03-02T02:29:39;94288.09;;;2.44;85.95
56374;BME280;58212;47.034;7.376;2024-03-02T02:32:07;94293.88;;;2.46;86.81
56374;BME280;58212;47.034;7.376;2024-03-02T02:34:34;94293.22;;;2.58;86.67
56374;BME280;58212;47.034;7.376;2024-03-02T02:37:00;94291.66;;;2.50;87.01
56374;BME280;58212;47.034;7.376;2024-03-02T02:39:29;94287.00;;;2.59;87.20
56374;BME280;58212;47.034;7.376;2024-03-02T02:41:56;94292.19;;;2.65;86.70
56374;BME280;58212;47.034;7.376;2024-03-02T02:44:23;94284.72;;;2.69;87.11
56374;BME280;58212;47.034;7.376;2024-03-02T02:46:49;94284.09;;;2.73;87.49
56374;BME280;58212;47.034;7.376;2024-03-02T02:49:16;94280.22;;;2.82;87.45
56374;BME280;58212;47.034;7.376;2024-03-02T02:51:43;94282.63;;;2.84;87.41
56374;BME280;58212;47.034;7.376;2024-03-02T02:54:10;94281.38;;;2.93;87.28
56374;BME280;58212;47.034;7.376;2024-03-02T02:56:38;94283.31;;;2.97;87.73
56374;BME280;58212;47.034;7.376;2024-03-02T02:59:05;94273.66;;;2.98;87.88
56374;BME280;58212;47.034;7.376;2024-03-02T03:01:32;94276.41;;;3.10;87.72
56374;BME280;58212;47.034;7.376;2024-03-02T03:03:58;94266.56;;;3.05;87.45
56374;BME280;58212;47.034;7.376;2024-03-02T03:06:25;94270.44;;;3.03;86.83
56374;BME280;58212;47.034;7.376;2024-03-02T03:08:52;94270.25;;;2.97;86.93
56374;BME280;58212;47.034;7.376;2024-03-02T03:11:19;94271.09;;;2.91;86.88
56374;BME280;58212;47.034;7.376;2024-03-02T03:13:49;94271.00;;;2.80;87.17
56374;BME280;58212;47.034;7.376;2024-03-02T03:16:16;94267.81;;;2.78;87.07
56374;BME280;58212;47.034;7.376;2024-03-02T03:18:43;94269.44;;;2.72;87.84
56374;BME280;58212;47.034;7.376;2024-03-02T03:21:10;94267.81;;;2.78;87.72
56374;BME280;58212;47.034;7.376;2024-03-02T03:23:36;94271.78;;;2.80;87.29
56374;BME280;58212;47.034;7.376;2024-03-02T03:26:03;94265.25;;;2.65;87.10
56374;BME280;58212;47.034;7.376;2024-03-02T03:28:30;94269.38;;;2.47;87.73
56374;BME280;58212;47.034;7.376;2024-03-02T03:30:59;94271.16;;;2.54;87.59
56374;BME280;58212;47.034;7.376;2024-03-02T03:33:26;94264.16;;;2.47;87.53
56374;BME280;58212;47.034;7.376;2024-03-02T03:35:54;94276.47;;;2.40;87.67
56374;BME280;58212;47.034;7.376;2024-03-02T03:38:21;94269.06;;;2.37;87.33
56374;BME280;58212;47.034;7.376;2024-03-02T03:40:47;94264.66;;;2.31;87.06
56374;BME280;58212;47.034;7.376;2024-03-02T03:43:14;94274.47;;;2.36;87.00
56374;BME280;58212;47.034;7.376;2024-03-02T03:45:41;94272.25;;;2.39;86.97
56374;BME280;58212;47.034;7.376;2024-03-02T03:48:09;94271.91;;;2.29;87.00
56374;BME280;58212;47.034;7.376;2024-03-02T03:50:36;94262.84;;;2.38;86.90
56374;BME280;58212;47.034;7.376;2024-03-02T03:53:03;94257.00;;;2.36;86.60
56374;BME280;58212;47.034;7.376;2024-03-02T03:55:30;94264.41;;;2.39;86.92
56374;BME280;58212;47.034;7.376;2024-03-02T03:57:57;94267.19;;;2.44;86.50
56374;BME280;58212;47.034;7.376;2024-03-02T04:00:24;94264.41;;;2.39;86.53
56374;BME280;58212;47.034;7.376;2024-03-02T04:02:51;94257.03;;;2.30;86.50
56374;BME280;58212;47.034;7.376;2024-03-02T04:05:19;94258.66;;;2.31;87.20
56374;BME280;58212;47.034;7.376;2024-03-02T04:07:46;94258.03;;;2.29;87.13
56374;BME280;58212;47.034;7.376;2024-03-02T04:10:13;94263.06;;;2.30;87.10
56374;BME280;58212;47.034;7.376;2024-03-02T04:12:40;94261.66;;;2.28;86.65
56374;BME280;58212;47.034;7.376;2024-03-02T04:15:07;94265.25;;;2.33;86.87
56374;BME280;58212;47.034;7.376;2024-03-02T04:17:34;94269.66;;;2.33;87.45
56374;BME280;58212;47.034;7.376;2024-03-02T04:20:02;94271.84;;;2.36;87.31
56374;BME280;58212;47.034;7.376;2024-03-02T04:22:32;94268.66;;;2.34;87.26
56374;BME280;58212;47.034;7.376;2024-03-02T04:25:00;94267.69;;;2.28;86.94
56374;BME280;58212;47.034;7.376;2024-03-02T04:27:26;94275.94;;;2.25;86.21
56374;BME280;58212;47.034;7.376;2024-03-02T04:29:52;94273.94;;;2.21;86.18
56374;BME280;58212;47.034;7.376;2024-03-02T04:32:19;94275.22;;;1.98;86.54
56374;BME280;58212;47.034;7.376;2024-03-02T04:34:46;94274.97;;;2.13;86.68
56374;BME280;58212;47.034;7.376;2024-03-02T04:37:13;94272.13;;;2.21;87.21
56374;BME280;58212;47.034;7.376;2024-03-02T04:39:41;94267.91;;;2.27;87.53
56374;BME280;58212;47.034;7.376;2024-03-02T04:42:08;94276.72;;;2.26;87.44
56374;BME280;58212;47.034;7.376;2024-03-02T04:44:35;94274.50;;;2.29;87.55
56374;BME280;58212;47.034;7.376;2024-03-02T04:47:02;94279.16;;;2.27;88.38
56374;BME280;58212;47.034;7.376;2024-03-02T04:49:29;94278.06;;;2.35;88.35
56374;BME280;58212;47.034;7.376;2024-03-02T04:51:55;94276.41;;;2.47;88.30
56374;BME280;58212;47.034;7.376;2024-03-02T04:54:22;94265.41;;;2.45;88.54
56374;BME280;58212;47.034;7.376;2024-03-02T04:56:51;94270.38;;;2.46;88.54
56374;BME280;58212;47.034;7.376;2024-03-02T04:59:18;94273.56;;;2.55;88.35
56374;BME280;58212;47.034;7.376;2024-03-02T05:01:45;94274.13;;;2.57;88.05
56374;BME280;58212;47.034;7.376;2024-03-02T05:04:12;94270.16;;;2.55;88.10
56374;BME280;58212;47.034;7.376;2024-03-02T05:06:39;94275.75;;;2.58;88.79
56374;BME280;58212;47.034;7.376;2024-03-02T05:09:06;94275.97;;;2.57;88.68
56374;BME280;58212;47.034;7.376;2024-03-02T05:11:33;94279.03;;;2.47;88.08
56374;BME280;58212;47.034;7.376;2024-03-02T05:14:37;94284.75;;;2.31;88.65
56374;BME280;58212;47.034;7.376;2024-03-02T05:17:04;94287.34;;;2.31;89.38
56374;BME280;58212;47.034;7.376;2024-03-02T05:19:31;94276.22;;;2.49;89.21
56374;BME280;58212;47.034;7.376;2024-03-02T05:21:57;94276.59;;;2.52;88.97
56374;BME280;58212;47.034;7.376;2024-03-02T05:24:24;94275.38;;;2.55;88.10
56374;BME280;58212;47.034;7.376;2024-03-02T05:26:52;94282.19;;;2.56;88.60
56374;BME280;58212;47.034;7.376;2024-03-02T05:29:19;94272.19;;;2.53;88.17
56374;BME280;58212;47.034;7.376;2024-03-02T05:31:47;94272.19;;;2.46;88.46
56374;BME280;58212;47.034;7.376;2024-03-02T05:34:14;94266.59;;;2.42;88.43
56374;BME280;58212;47.034;7.376;2024-03-02T05:36:41;94266.59;;;2.49;88.03
56374;BME280;58212;47.034;7.376;2024-03-02T05:39:07;94267.97;;;2.52;87.37
56374;BME280;58212;47.034;7.376;2024-03-02T05:41:36;94256.97;;;2.43;87.29
56374;BME280;58212;47.034;7.376;2024-03-02T05:44:04;94263.59;;;2.45;87.82
56374;BME280;58212;47.034;7.376;2024-03-02T05:46:30;94263.78;;;2.44;87.55
56374;BME280;58212;47.034;7.376;2024-03-02T05:48:59;94261.56;;;2.47;87.47
56374;BME280;58212;47.034;7.376;2024-03-02T05:51:26;94263.13;;;2.55;88.14
56374;BME280;58212;47.034;7.376;2024-03-02T05:53:52;94257.13;;;2.48;87.42
56374;BME280;58212;47.034;7.376;2024-03-02T05:56:19;94257.44;;;2.33;87.50
56374;BME280;58212;47.034;7.376;2024-03-02T05:58:46;94266.88;;;2.34;87.71
56374;BME280;58212;47.034;7.376;2024-03-02T06:01:23;94264.03;;;2.36;88.24
56374;BME280;58212;47.034;7.376;2024-03-02T06:03:54;94260.59;;;2.42;87.61
56374;BME280;58212;47.034;7.376;2024-03-02T06:06:23;94253.69;;;2.54;88.30
56374;BME280;58212;47.034;7.376;2024-03-02T06:08:50;94255.53;;;2.47;87.67
56374;BME280;58212;47.034;7.376;2024-03-02T06:11:17;94244.28;;;2.53;88.07
56374;BME280;58212;47.034;7.376;2024-03-02T06:13:43;94252.13;;;2.46;88.10
56374;BME280;58212;47.034;7.376;2024-03-02T06:16:10;94249.69;;;2.52;88.96
56374;BME280;58212;47.034;7.376;2024-03-02T06:18:37;94256.63;;;2.64;88.62
56374;BME280;58212;47.034;7.376;2024-03-02T06:21:05;94256.00;;;2.69;88.45
56374;BME280;58212;47.034;7.376;2024-03-02T06:23:33;94255.25;;;2.86;89.14
56374;BME280;58212;47.034;7.376;2024-03-02T06:26:00;94259.28;;;2.89;88.60
56374;BME280;58212;47.034;7.376;2024-03-02T06:28:27;94259.06;;;2.90;88.17
56374;BME280;58212;47.034;7.376;2024-03-02T06:30:54;94266.69;;;2.92;88.40
56374;BME280;58212;47.034;7.376;2024-03-02T06:33:22;94265.19;;;2.78;88.24
56374;BME280;58212;47.034;7.376;2024-03-02T06:35:52;94263.22;;;2.98;88.79
56374;BME280;58212;47.034;7.376;2024-03-02T06:38:18;94262.31;;;3.11;88.14
56374;BME280;58212;47.034;7.376;2024-03-02T06:40:47;94260.34;;;3.06;88.45
56374;BME280;58212;47.034;7.376;2024-03-02T06:43:14;94264.25;;;3.22;89.22
56374;BME280;58212;47.034;7.376;2024-03-02T06:45:40;94270.94;;;3.36;88.46
56374;BME280;58212;47.034;7.376;2024-03-02T06:48:07;94261.22;;;3.43;88.89
56374;BME280;58212;47.034;7.376;2024-03-02T06:50:34;94262.41;;;3.47;88.67
56374;BME280;58212;47.034;7.376;2024-03-02T06:53:01;94250.88;;;3.55;88.54
56374;BME280;58212;47.034;7.376;2024-03-02T06:55:29;94256.66;;;3.57;88.67
56374;BME280;58212;47.034;7.376;2024-03-02T06:57:57;94266.84;;;3.65;88.31
56374;BME280;58212;47.034;7.376;2024-03-02T07:00:24;94271.88;;;3.66;88.36
56374;BME280;58212;47.034;7.376;2024-03-02T07:02:51;94260.97;;;3.69;87.85
56374;BME280;58212;47.034;7.376;2024-03-02T07:05:18;94259.09;;;3.76;88.44
56374;BME280;58212;47.034;7.376;2024-03-02T07:07:46;94261.41;;;3.84;88.19
56374;BME280;58212;47.034;7.376;2024-03-02T07:10:13;94255.66;;;3.94;87.47
56374;BME280;58212;47.034;7.376;2024-03-02T07:12:40;94259.00;;;4.01;87.79
56374;BME280;58212;47.034;7.376;2024-03-02T07:15:09;94246.44;;;4.10;87.16
56374;BME280;58212;47.034;7.376;2024-03-02T07:17:54;94241.66;;;4.18;87.17
56374;BME280;58212;47.034;7.376;2024-03-02T07:20:21;94249.31;;;4.20;86.67
56374;BME280;58212;47.034;7.376;2024-03-02T07:22:48;94257.00;;;4.33;86.59
56374;BME280;58212;47.034;7.376;2024-03-02T07:25:15;94246.63;;;4.08;87.25
56374;BME280;58212;47.034;7.376;2024-03-02T07:27:42;94249.50;;;4.07;87.39
56374;BME280;58212;47.034;7.376;2024-03-02T07:30:13;94245.41;;;4.11;87.52
56374;BME280;58212;47.034;7.376;2024-03-02T07:32:41;94251.72;;;4.21;87.86
56374;BME280;58212;47.034;7.376;2024-03-02T07:35:11;94247.16;;;4.17;87.86
56374;BME280;58212;47.034;7.376;2024-03-02T07:37:38;94244.00;;;4.26;87.75
56374;BME280;58212;47.034;7.376;2024-03-02T07:40:06;94243.53;;;4.29;87.91
56374;BME280;58212;47.034;7.376;2024-03-02T07:42:37;94240.97;;;4.41;87.81
56374;BME280;58212;47.034;7.376;2024-03-02T07:45:05;94250.13;;;4.50;87.47
56374;BME280;58212;47.034;7.376;2024-03-02T07:47:34;94250.88;;;4.69;87.15
56374;BME280;58212;47.034;7.376;2024-03-02T07:50:01;94247.81;;;4.72;86.76
56374;BME280;58212;47.034;7.376;2024-03-02T07:52:31;94254.56;;;4.79;86.75
56374;BME280;58212;47.034;7.376;2024-03-02T07:54:58;94243.47;;;4.66;86.16
56374;BME280;58212;47.034;7.376;2024-03-02T07:57:25;94249.63;;;4.71;86.72
56374;BME280;58212;47.034;7.376;2024-03-02T07:59:52;94240.75;;;4.42;87.30
56374;BME280;58212;47.034;7.376;2024-03-02T08:02:19;94255.72;;;4.06;89.22
56374;BME280;58212;47.034;7.376;2024-03-02T08:04:47;94251.91;;;4.38;89.46
56374;BME280;58212;47.034;7.376;2024-03-02T08:07:14;94250.28;;;4.25;89.81
56374;BME280;58212;47.034;7.376;2024-03-02T08:09:40;94254.38;;;4.51;89.05
56374;BME280;58212;47.034;7.376;2024-03-02T08:12:07;94253.31;;;4.82;88.03
56374;BME280;58212;47.034;7.376;2024-03-02T08:14:35;94244.81;;;4.98;86.37
56374;BME280;58212;47.034;7.376;2024-03-02T08:17:02;94230.09;;;5.67;85.31
56374;BME280;58212;47.034;7.376;2024-03-02T08:19:35;94223.84;;;6.31;81.06
56374;BME280;58212;47.034;7.376;2024-03-02T08:22:04;94224.72;;;5.73;82.20
56374;BME280;58212;47.034;7.376;2024-03-02T08:24:31;94224.16;;;5.95;82.23
56374;BME280;58212;47.034;7.376;2024-03-02T08:26:59;94213.28;;;8.36;77.18
56374;BME280;58212;47.034;7.376;2024-03-02T08:29:26;94212.78;;;9.61;70.50
56374;BME280;58212;47.034;7.376;2024-03-02T08:31:53;94223.56;;;8.16;75.08
56374;BME280;58212;47.034;7.376;2024-03-02T08:34:20;94219.81;;;8.12;74.15
56374;BME280;58212;47.034;7.376;2024-03-02T08:36:46;94224.97;;;8.02;74.02
56374;BME280;58212;47.034;7.376;2024-03-02T08:39:15;94233.25;;;6.72;77.50
56374;BME280;58212;47.034;7.376;2024-03-02T08:41:42;94232.63;;;6.81;78.59
56374;BME280;58212;47.034;7.376;2024-03-02T08:44:09;94231.34;;;6.84;78.83
56374;BME280;58212;47.034;7.376;2024-03-02T08:46:36;94224.69;;;6.48;79.75
56374;BME280;58212;47.034;7.376;2024-03-02T08:49:03;94229.25;;;6.13;80.87
56374;BME280;58212;47.034;7.376;2024-03-02T08:51:30;94225.19;;;5.94;81.52
56374;BME280;58212;47.034;7.376;2024-03-02T08:53:57;94226.00;;;5.82;82.17
56374;BME280;58212;47.034;7.376;2024-03-02T08:56:25;94220.38;;;6.02;81.67
56374;BME280;58212;47.034;7.376;2024-03-02T08:58:52;94207.72;;;5.99;81.93
56374;BME280;58212;47.034;7.376;2024-03-02T09:01:19;94211.34;;;5.98;81.51
56374;BME280;58212;47.034;7.376;2024-03-02T09:03:46;94204.53;;;5.97;81.96
56374;BME280;58212;47.034;7.376;2024-03-02T09:06:14;94197.84;;;6.18;81.99
56374;BME280;58212;47.034;7.376;2024-03-02T09:08:42;94193.75;;;6.67;81.12
56374;BME280;58212;47.034;7.376;2024-03-02T09:11:09;94188.81;;;6.70;80.05
56374;BME280;58212;47.034;7.376;2024-03-02T09:13:39;94186.75;;;6.89;79.85
56374;BME280;58212;47.034;7.376;2024-03-02T09:16:06;94185.44;;;6.58;80.04
56374;BME280;58212;47.034;7.376;2024-03-02T09:18:36;94191.50;;;6.59;80.07
56374;BME280;58212;47.034;7.376;2024-03-02T09:21:03;94178.84;;;6.56;79.96
56374;BME280;58212;47.034;7.376;2024-03-02T09:23:31;94179.69;;;6.45;79.20
56374;BME280;58212;47.034;7.376;2024-03-02T09:25:58;94177.09;;;6.78;79.84
56374;BME280;58212;47.034;7.376;2024-03-02T09:28:24;94179.53;;;6.68;78.80
56374;BME280;58212;47.034;7.376;2024-03-02T09:30:53;94174.75;;;6.48;79.12
56374;BME280;58212;47.034;7.376;2024-03-02T09:33:19;94173.91;;;6.59;79.34
56374;BME280;58212;47.034;7.376;2024-03-02T09:35:46;94165.94;;;6.71;78.63
56374;BME280;58212;47.034;7.376;2024-03-02T09:38:14;94159.25;;;6.80;77.76
56374;BME280;58212;47.034;7.376;2024-03-02T09:40:41;94163.97;;;6.78;76.59
56374;BME280;58212;47.034;7.376;2024-03-02T09:43:08;94156.38;;;7.15;76.33
56374;BME280;58212;47.034;7.376;2024-03-02T09:45:36;94144.19;;;7.25;74.99
56374;BME280;58212;47.034;7.376;2024-03-02T09:48:05;94145.06;;;7.53;75.47
56374;BME280;58212;47.034;7.376;2024-03-02T09:50:32;94144.53;;;7.34;74.39
56374;BME280;58212;47.034;7.376;2024-03-02T09:52:59;94144.34;;;7.57;76.01
56374;BME280;58212;47.034;7.376;2024-03-02T09:55:26;94138.25;;;8.00;74.63
56374;BME280;58212;47.034;7.376;2024-03-02T09:57:53;94142.38;;;7.91;74.68
56374;BME280;58212;47.034;7.376;2024-03-02T10:00:20;94149.56;;;7.74;74.57
56374;BME280;58212;47.034;7.376;2024-03-02T10:02:47;94140.59;;;7.97;74.38
56374;BME280;58212;47.034;7.376;2024-03-02T10:05:24;94138.31;;;8.27;73.96
56374;BME280;58212;47.034;7.376;2024-03-02T10:08:00;94134.88;;;8.00;73.18
56374;BME280;58212;47.034;7.376;2024-03-02T10:10:35;94126.81;;;8.11;73.46
56374;BME280;58212;47.034;7.376;2024-03-02T10:13:06;94134.84;;;8.21;73.39
56374;BME280;58212;47.034;7.376;2024-03-02T10:15:34;94138.56;;;8.25;72.93
56374;BME280;58212;47.034;7.376;2024-03-02T10:18:02;94142.81;;;7.83;73.63
56374;BME280;58212;47.034;7.376;2024-03-02T10:20:30;94140.13;;;8.00;73.47
56374;BME280;58212;47.034;7.376;2024-03-02T10:23:10;94127.72;;;8.00;73.48
56374;BME280;58212;47.034;7.376;2024-03-02T10:25:37;94129.72;;;8.15;73.16
56374;BME280;58212;47.034;7.376;2024-03-02T10:28:04;94127.66;;;8.39;72.60
56374;BME280;58212;47.034;7.376;2024-03-02T10:30:32;94129.44;;;8.33;72.58
56374;BME280;58212;47.034;7.376;2024-03-02T10:32:59;94127.09;;;8.15;73.28
56374;BME280;58212;47.034;7.376;2024-03-02T10:35:27;94125.53;;;8.14;72.14
56374;BME280;58212;47.034;7.376;2024-03-02T10:37:55;94122.91;;;8.41;71.97
56374;BME280;58212;47.034;7.376;2024-03-02T10:40:23;94118.00;;;8.49;70.57
56374;BME280;58212;47.034;7.376;2024-03-02T10:42:50;94117.97;;;8.76;71.14
56374;BME280;58212;47.034;7.376;2024-03-02T10:45:17;94121.38;;;9.08;68.64
56374;BME280;58212;47.034;7.376;2024-03-02T10:47:46;94112.31;;;8.94;68.64
56374;BME280;58212;47.034;7.376;2024-03-02T10:50:13;94110.09;;;8.49;70.28
56374;BME280;58212;47.034;7.376;2024-03-02T10:52:40;94112.91;;;8.69;70.30
56374;BME280;58212;47.034;7.376;2024-03-02T10:55:09;94107.66;;;8.74;70.26
56374;BME280;58212;47.034;7.376;2024-03-02T10:57:41;94108.81;;;8.83;69.62
56374;BME280;58212;47.034;7.376;2024-03-02T11:00:12;94107.72;;;9.16;68.38
56374;BME280;58212;47.034;7.376;2024-03-02T11:02:48;94108.13;;;8.98;69.40
56374;BME280;58212;47.034;7.376;2024-03-02T11:05:23;94105.66;;;9.23;68.77
56374;BME280;58212;47.034;7.376;2024-03-02T11:07:57;94104.22;;;8.74;68.18
56374;BME280;58212;47.034;7.376;2024-03-02T11:10:26;94098.66;;;8.70;68.45
56374;BME280;58212;47.034;7.376;2024-03-02T11:12:59;94084.28;;;8.88;68.35
56374;BME280;58212;47.034;7.376;2024-03-02T11:15:27;94072.38;;;9.22;68.05
56374;BME280;58212;47.034;7.376;2024-03-02T11:17:54;94077.75;;;8.96;67.72
56374;BME280;58212;47.034;7.376;2024-03-02T11:20:23;94071.69;;;9.42;67.64
56374;BME280;58212;47.034;7.376;2024-03-02T11:22:50;94070.44;;;9.60;66.35
56374;BME280;58212;47.034;7.376;2024-03-02T11:25:25;94069.09;;;9.52;67.13
56374;BME280;58212;47.034;7.376;2024-03-02T11:28:03;94062.38;;;9.24;67.25
56374;BME280;58212;47.034;7.376;2024-03-02T11:30:48;94060.13;;;9.58;67.02
56374;BME280;58212;47.034;7.376;2024-03-02T11:33:23;94063.38;;;9.75;66.90
56374;BME280;58212;47.034;7.376;2024-03-02T11:35:51;94061.41;;;9.46;66.59
56374;BME280;58212;47.034;7.376;2024-03-02T11:38:18;94058.31;;;9.69;67.04
56374;BME280;58212;47.034;7.376;2024-03-02T11:40:46;94060.50;;;9.82;66.95
56374;BME280;58212;47.034;7.376;2024-03-02T11:43:13;94050.41;;;9.69;65.95
56374;BME280;58212;47.034;7.376;2024-03-02T11:45:42;94050.25;;;9.33;66.92
56374;BME280;58212;47.034;7.376;2024-03-02T11:48:11;94048.69;;;9.38;66.61
56374;BME280;58212;47.034;7.376;2024-03-02T11:50:41;94046.09;;;9.43;67.21
56374;BME280;58212;47.034;7.376;2024-03-02T11:53:10;94032.19;;;9.67;66.39
56374;BME280;58212;47.034;7.376;2024-03-02T11:55:39;94034.31;;;9.70;65.81
56374;BME280;58212;47.034;7.376;2024-03-02T11:58:07;94033.44;;;9.50;66.02
56374;BME280;58212;47.034;7.376;2024-03-02T12:00:35;94014.41;;;9.43;66.63
56374;BME280;58212;47.034;7.376;2024-03-02T12:03:04;94011.25;;;9.51;66.09
56374;BME280;58212;47.034;7.376;2024-03-02T12:05:33;93999.34;;;9.38;66.77
56374;BME280;58212;47.034;7.376;2024-03-02T12:08:01;93998.09;;;9.66;67.50
56374;BME280;58212;47.034;7.376;2024-03-02T12:10:29;93992.25;;;9.49;65.61
56374;BME280;58212;47.034;7.376;2024-03-02T12:12:56;93990.91;;;9.41;66.04
56374;BME280;58212;47.034;7.376;2024-03-02T12:15:26;93989.06;;;9.47;65.52
56374;BME280;58212;47.034;7.376;2024-03-02T12:17:54;93984.34;;;9.54;65.44
56374;BME280;58212;47.034;7.376;2024-03-02T12:20:22;93987.00;;;9.54;65.62
56374;BME280;58212;47.034;7.376;2024-03-02T12:22:50;93977.75;;;9.61;66.34
56374;BME280;58212;47.034;7.376;2024-03-02T12:25:19;93972.66;;;9.40;65.45
56374;BME280;58212;47.034;7.376;2024-03-02T12:27:46;93972.47;;;9.61;65.08
56374;BME280;58212;47.034;7.376;2024-03-02T12:30:14;93965.88;;;9.59;64.70
56374;BME280;58212;47.034;7.376;2024-03-02T12:32:44;93970.16;;;9.90;64.83
56374;BME280;58212;47.034;7.376;2024-03-02T12:35:11;93961.19;;;10.06;64.48
56374;BME280;58212;47.034;7.376;2024-03-02T12:37:44;93955.09;;;9.91;64.21
56374;BME280;58212;47.034;7.376;2024-03-02T12:40:11;93956.91;;;9.80;64.27
56374;BME280;58212;47.034;7.376;2024-03-02T12:42:39;93955.66;;;9.98;64.60
56374;BME280;58212;47.034;7.376;2024-03-02T12:45:07;93961.19;;;10.11;65.55
56374;BME280;58212;47.034;7.376;2024-03-02T12:47:34;93944.00;;;9.94;64.55
56374;BME280;58212;47.034;7.376;2024-03-02T12:50:04;93942.66;;;9.91;64.69
56374;BME280;58212;47.034;7.376;2024-03-02T12:52:31;93940.03;;;9.91;65.61
56374;BME280;58212;47.034;7.376;2024-03-02T12:54:59;93929.47;;;9.91;66.07
56374;BME280;58212;47.034;7.376;2024-03-02T12:57:28;93928.97;;;9.94;65.43
56374;BME280;58212;47.034;7.376;2024-03-02T12:59:58;93930.22;;;9.56;66.63
56374;BME280;58212;47.034;7.376;2024-03-02T13:02:28;93927.84;;;9.60;67.23
56374;BME280;58212;47.034;7.376;2024-03-02T13:04:57;93928.91;;;9.54;68.05
56374;BME280;58212;47.034;7.376;2024-03-02T13:07:25;93927.56;;;9.51;68.24
56374;BME280;58212;47.034;7.376;2024-03-02T13:09:53;93912.53;;;9.67;68.42
56374;BME280;58212;47.034;7.376;2024-03-02T13:12:22;93917.56;;;9.83;68.10
56374;BME280;58212;47.034;7.376;2024-03-02T13:14:49;93921.78;;;9.74;68.09